createdAt,value
2017-08-17T00:01:57.578Z,22.70
2017-08-17T00:04:30.657Z,22.66
2017-08-17T00:07:03.329Z,22.57
2017-08-17T00:09:34.561Z,22.54
2017-08-17T00:12:10.261Z,22.48
2017-08-17T00:14:41.720Z,22.46
2017-08-17T00:17:13.223Z,22.42
2017-08-17T00:19:44.339Z,22.40
2017-08-17T00:22:15.947Z,22.36
2017-08-17T00:24:48.975Z,22.35
2017-08-17T00:27:20.002Z,22.35
2017-08-17T00:29:51.045Z,22.35
2017-08-17T00:32:22.189Z,22.35
2017-08-17T00:34:53.272Z,22.33
2017-08-17T00:37:24.386Z,22.31
2017-08-17T00:39:56.648Z,22.32
2017-08-17T00:42:27.852Z,22.31
2017-08-17T00:45:01.027Z,22.28
2017-08-17T00:47:32.464Z,22.26
2017-08-17T00:50:07.073Z,22.26
2017-08-17T00:52:38.202Z,22.26
2017-08-17T00:55:10.150Z,22.25
2017-08-17T00:57:41.187Z,22.23
2017-08-17T01:00:13.687Z,22.23
2017-08-17T01:02:45.263Z,22.22
2017-08-17T01:05:16.318Z,22.21
2017-08-17T01:07:47.362Z,22.17
2017-08-17T01:10:19.433Z,22.13
2017-08-17T01:12:50.484Z,22.09
2017-08-17T01:15:21.582Z,22.06
2017-08-17T01:17:53.212Z,22.03
2017-08-17T01:20:24.258Z,22.01
2017-08-17T01:22:55.582Z,21.96
2017-08-17T01:25:26.704Z,21.91
2017-08-17T01:28:00.621Z,21.87
2017-08-17T01:30:31.663Z,21.88
2017-08-17T01:33:04.431Z,21.85
2017-08-17T01:35:35.492Z,21.84
2017-08-17T01:38:07.907Z,21.80
2017-08-17T01:40:38.958Z,21.79
2017-08-17T01:43:10.463Z,21.78
2017-08-17T01:45:41.482Z,21.76
2017-08-17T01:48:12.690Z,21.76
2017-08-17T01:50:43.813Z,21.73
2017-08-17T01:53:15.239Z,21.72
2017-08-17T01:55:46.271Z,21.67
2017-08-17T01:58:17.874Z,21.63
2017-08-17T02:00:49.466Z,21.61
2017-08-17T02:03:20.453Z,21.59
2017-08-17T02:05:51.826Z,21.55
2017-08-17T02:08:22.843Z,21.53
2017-08-17T02:10:53.896Z,21.49
2017-08-17T02:13:24.861Z,21.49
2017-08-17T02:15:57.636Z,21.49
2017-08-17T02:18:28.652Z,21.46
2017-08-17T02:21:00.219Z,21.42
2017-08-17T02:23:31.689Z,21.38
2017-08-17T02:26:06.353Z,21.34
2017-08-17T02:28:37.355Z,21.33
2017-08-17T02:31:08.726Z,21.32
2017-08-17T02:33:39.714Z,21.29
2017-08-17T02:36:13.326Z,21.26
2017-08-17T02:38:45.053Z,21.22
2017-08-17T02:41:16.080Z,21.20
2017-08-17T02:43:47.065Z,21.19
2017-08-17T02:46:18.122Z,21.15
2017-08-17T02:48:49.526Z,21.14
2017-08-17T02:51:20.509Z,21.08
2017-08-17T02:53:53.157Z,21.05
2017-08-17T02:58:51.703Z,21.01
2017-08-17T03:01:22.702Z,21.02
2017-08-17T03:03:54.211Z,20.99
2017-08-17T03:06:25.218Z,20.99
2017-08-17T03:08:57.420Z,20.98
2017-08-17T03:11:28.434Z,20.95
2017-08-17T03:14:02.921Z,20.92
2017-08-17T03:16:33.953Z,20.90
2017-08-17T03:19:05.407Z,20.92
2017-08-17T03:21:36.417Z,20.92
2017-08-17T03:24:07.570Z,20.92
2017-08-17T03:26:38.571Z,20.90
2017-08-17T03:29:09.899Z,20.91
2017-08-17T03:31:41.227Z,20.90
2017-08-17T03:34:13.222Z,20.88
2017-08-17T03:36:44.779Z,20.89
2017-08-17T03:39:15.773Z,20.90
2017-08-17T03:41:47.658Z,20.90
2017-08-17T03:44:19.334Z,20.88
2017-08-17T03:46:50.406Z,20.89
2017-08-17T03:49:21.660Z,20.91
2017-08-17T03:51:52.665Z,20.92
2017-08-17T03:54:23.784Z,20.92
2017-08-17T03:56:55.317Z,20.90
2017-08-17T03:59:26.521Z,20.88
2017-08-17T04:01:59.662Z,20.89
2017-08-17T04:04:31.009Z,20.87
2017-08-17T04:07:02.549Z,20.85
2017-08-17T04:09:33.537Z,20.74
2017-08-17T04:12:05.562Z,20.68
2017-08-17T04:14:37.013Z,20.67
2017-08-17T04:17:08.009Z,20.68
2017-08-17T04:19:39.004Z,20.65
2017-08-17T04:22:10.911Z,20.67
2017-08-17T04:24:41.909Z,20.66
2017-08-17T04:27:12.896Z,20.69
2017-08-17T04:29:44.256Z,20.73
2017-08-17T04:32:15.253Z,20.75
2017-08-17T04:34:46.261Z,20.78
2017-08-17T04:37:17.229Z,20.79
2017-08-17T04:39:48.786Z,20.81
2017-08-17T04:42:20.424Z,20.82
2017-08-17T04:44:51.493Z,20.86
2017-08-17T04:47:23.014Z,20.84
2017-08-17T04:49:54.077Z,20.86
2017-08-17T04:52:25.253Z,20.89
2017-08-17T04:54:57.161Z,20.95
2017-08-17T04:57:44.200Z,21.03
2017-08-17T05:00:16.178Z,21.11
2017-08-17T05:02:47.657Z,21.19
2017-08-17T05:05:18.779Z,21.27
2017-08-17T05:07:49.835Z,21.40
2017-08-17T05:10:20.906Z,21.54
2017-08-17T05:12:52.392Z,21.63
2017-08-17T05:15:23.870Z,21.75
2017-08-17T05:17:54.949Z,21.90
2017-08-17T05:20:26.335Z,22.07
2017-08-17T05:22:58.071Z,22.26
2017-08-17T05:25:29.334Z,22.43
2017-08-17T05:28:05.191Z,22.45
2017-08-17T05:30:36.495Z,22.50
2017-08-17T05:33:07.494Z,22.48
2017-08-17T05:35:38.830Z,22.47
2017-08-17T05:38:09.873Z,22.51
2017-08-17T05:40:40.881Z,22.40
2017-08-17T05:43:12.220Z,22.38
2017-08-17T05:45:43.246Z,22.44
2017-08-17T05:48:15.120Z,22.53
2017-08-17T05:50:46.137Z,22.61
2017-08-17T05:53:17.157Z,22.68
2017-08-17T05:55:48.207Z,22.80
2017-08-17T05:58:19.264Z,23.09
2017-08-17T06:00:50.347Z,23.23
2017-08-17T06:03:21.367Z,23.44
2017-08-17T06:05:52.343Z,23.70
2017-08-17T06:08:24.021Z,23.93
2017-08-17T06:10:55.240Z,24.12
2017-08-17T06:13:26.234Z,24.29
2017-08-17T06:15:58.245Z,24.42
2017-08-17T06:18:29.670Z,24.25
2017-08-17T06:21:02.478Z,24.25
2017-08-17T06:23:33.478Z,24.35
2017-08-17T06:26:05.963Z,24.33
2017-08-17T06:28:36.964Z,24.12
2017-08-17T06:31:07.972Z,24.30
2017-08-17T06:33:39.078Z,24.27
2017-08-17T06:36:11.414Z,24.32
2017-08-17T06:38:42.674Z,24.33
2017-08-17T06:41:13.703Z,24.21
2017-08-17T06:43:44.685Z,24.44
2017-08-17T06:46:16.941Z,24.68
2017-08-17T06:48:47.946Z,24.71
2017-08-17T06:51:19.571Z,24.60
2017-08-17T06:53:50.635Z,24.81
2017-08-17T06:56:22.377Z,24.75
2017-08-17T06:58:53.733Z,24.89
2017-08-17T07:01:24.779Z,25.20
2017-08-17T07:03:55.793Z,24.98
2017-08-17T07:06:27.149Z,25.24
2017-08-17T07:08:59.656Z,25.22
2017-08-17T07:11:30.738Z,25.13
2017-08-17T07:14:04.060Z,25.22
2017-08-17T07:16:35.058Z,25.46
2017-08-17T07:19:06.064Z,25.55
2017-08-17T07:21:37.365Z,25.65
2017-08-17T07:24:08.455Z,25.60
2017-08-17T07:26:39.469Z,25.64
2017-08-17T07:29:10.858Z,25.73
2017-08-17T07:31:41.843Z,25.52
2017-08-17T07:34:13.940Z,25.71
2017-08-17T07:36:44.930Z,25.68
2017-08-17T07:39:15.897Z,25.83
2017-08-17T07:41:46.929Z,25.80
2017-08-17T07:44:17.921Z,25.92
2017-08-17T07:46:49.335Z,26.08
2017-08-17T07:49:20.622Z,26.21
2017-08-17T07:51:51.863Z,26.83
2017-08-17T07:54:22.997Z,27.31
2017-08-17T07:56:54.028Z,27.62
2017-08-17T07:59:25.025Z,27.93
2017-08-17T08:01:57.277Z,28.10
2017-08-17T08:04:28.378Z,28.03
2017-08-17T08:07:01.818Z,27.98
2017-08-17T08:09:34.019Z,27.45
2017-08-17T08:12:07.883Z,27.41
2017-08-17T08:14:38.855Z,27.31
2017-08-17T08:17:10.177Z,27.21
2017-08-17T08:19:41.146Z,27.21
2017-08-17T08:22:13.085Z,27.52
2017-08-17T08:24:44.438Z,27.88
2017-08-17T08:27:15.414Z,28.05
2017-08-17T08:29:46.459Z,28.18
2017-08-17T08:32:18.329Z,28.27
2017-08-17T08:34:49.397Z,28.46
2017-08-17T08:37:20.436Z,28.65
2017-08-17T08:39:51.561Z,28.73
2017-08-17T08:42:23.150Z,28.81
2017-08-17T08:44:54.175Z,29.04
2017-08-17T08:47:25.308Z,29.26
2017-08-17T08:49:57.306Z,28.86
2017-08-17T08:52:30.289Z,28.82
2017-08-17T08:55:08.674Z,28.92
2017-08-17T08:57:39.789Z,28.76
2017-08-17T09:00:15.672Z,28.72
2017-08-17T09:02:49.185Z,28.72
2017-08-17T09:05:20.280Z,28.82
2017-08-17T09:07:52.492Z,29.09
2017-08-17T09:10:23.562Z,29.04
2017-08-17T09:13:02.441Z,29.02
2017-08-17T09:15:37.201Z,28.93
2017-08-17T09:18:10.001Z,29.00
2017-08-17T09:20:42.259Z,29.12
2017-08-17T09:23:13.729Z,28.59
2017-08-17T09:25:45.199Z,28.77
2017-08-17T09:28:19.128Z,28.89
2017-08-17T09:31:15.897Z,29.01
2017-08-17T09:33:47.030Z,29.36
2017-08-17T09:36:21.992Z,29.61
2017-08-17T09:38:53.441Z,30.33
2017-08-17T09:41:24.430Z,30.74
2017-08-17T09:43:55.590Z,31.44
2017-08-17T09:46:26.708Z,31.61
2017-08-17T09:49:02.529Z,31.61
2017-08-17T09:51:33.517Z,31.80
2017-08-17T09:54:07.519Z,32.22
2017-08-17T09:56:38.921Z,32.56
2017-08-17T09:59:09.924Z,33.01
2017-08-17T10:01:40.930Z,32.94
2017-08-17T10:04:12.317Z,32.80
2017-08-17T10:06:43.307Z,33.24
2017-08-17T10:09:14.314Z,33.10
2017-08-17T10:11:45.790Z,32.46
2017-08-17T10:14:17.868Z,32.61
2017-08-17T10:16:49.184Z,31.94
2017-08-17T10:19:20.530Z,31.58
2017-08-17T10:21:51.595Z,31.85
2017-08-17T10:24:23.549Z,31.53
2017-08-17T10:26:54.542Z,32.13
2017-08-17T10:29:25.531Z,32.92
2017-08-17T10:31:57.347Z,33.43
2017-08-17T10:34:28.725Z,33.93
2017-08-17T10:37:02.586Z,33.90
2017-08-17T10:39:33.669Z,33.73
2017-08-17T10:42:08.637Z,34.30
2017-08-17T10:44:39.946Z,34.67
2017-08-17T10:47:11.165Z,34.32
2017-08-17T10:49:42.835Z,34.10
2017-08-17T10:52:15.691Z,34.27
2017-08-17T10:54:47.002Z,34.77
2017-08-17T10:57:18.039Z,34.68
2017-08-17T10:59:49.483Z,35.54
2017-08-17T11:02:21.317Z,35.87
2017-08-17T11:04:52.598Z,35.78
2017-08-17T11:07:23.932Z,36.74
2017-08-17T11:09:55.220Z,37.41
2017-08-17T11:12:26.275Z,37.42
2017-08-17T11:15:05.035Z,36.85
2017-08-17T11:17:37.184Z,35.81
2017-08-17T11:20:10.977Z,35.47
2017-08-17T11:22:42.714Z,35.64
2017-08-17T11:25:13.904Z,35.24
2017-08-17T11:27:45.214Z,35.20
2017-08-17T11:30:19.813Z,33.38
2017-08-17T11:32:51.009Z,33.05
2017-08-17T11:35:22.331Z,33.39
2017-08-17T11:37:53.558Z,34.25
2017-08-17T11:40:25.803Z,35.26
2017-08-17T11:43:03.512Z,35.40
2017-08-17T11:45:36.816Z,34.68
2017-08-17T11:48:09.511Z,35.63
2017-08-17T11:50:41.204Z,36.62
2017-08-17T11:53:13.259Z,36.19
2017-08-17T11:58:41.382Z,34.93
2017-08-17T12:01:13.038Z,36.27
2017-08-17T12:03:44.099Z,35.11
2017-08-17T12:06:18.025Z,34.69
2017-08-17T12:08:49.094Z,32.97
2017-08-17T12:11:20.536Z,32.96
2017-08-17T12:13:51.909Z,33.74
2017-08-17T12:16:23.889Z,33.84
2017-08-17T12:18:55.311Z,34.28
2017-08-17T12:21:27.339Z,33.81
2017-08-17T12:24:04.643Z,34.10
2017-08-17T12:26:35.656Z,35.02
2017-08-17T12:29:07.338Z,34.53
2017-08-17T12:31:38.479Z,35.33
2017-08-17T12:34:12.852Z,35.44
2017-08-17T12:36:44.288Z,35.96
2017-08-17T12:39:15.365Z,36.41
2017-08-17T12:41:48.547Z,38.80
2017-08-17T12:44:20.797Z,42.54
2017-08-17T12:46:52.064Z,44.82
2017-08-17T12:49:23.662Z,46.07
2017-08-17T12:51:55.572Z,44.92
2017-08-17T12:54:26.988Z,45.65
2017-08-17T12:57:07.770Z,43.97
2017-08-17T12:59:39.040Z,39.05
2017-08-17T13:02:12.022Z,38.74
2017-08-17T13:04:43.625Z,39.98
2017-08-17T13:07:15.302Z,39.56
2017-08-17T13:09:46.619Z,41.93
2017-08-17T13:12:19.656Z,43.49
2017-08-17T13:14:51.985Z,40.42
2017-08-17T13:20:35.973Z,37.64
2017-08-17T13:23:10.503Z,37.55
2017-08-17T13:25:42.041Z,37.38
2017-08-17T13:28:13.776Z,39.37
2017-08-17T13:30:47.936Z,40.17
2017-08-17T13:33:19.202Z,43.59
2017-08-17T13:35:51.030Z,43.84
2017-08-17T13:38:28.211Z,44.50
